Time;durP1;ratioP1;P1;durP2;ratioP2;P2;SDS_P1;SDS_P2;PMS_P1;PMS_P2;Temp;Humidity;BMP_temperature;BMP_pressure;BME280_temperature;BME280_humidity;BME280_pressure;Samples;Min_cycle;Max_cycle;Signal;HPM_P1;HPM_P2
2022/12/22 03:27:34;;;;;;;8.63;5.72;;;;;;;;;;5043091;28;20059;-59
2022/12/22 03:30:00;;;;;;;8.35;5.15;;;;;;;;;;5038683;28;20037;-60
2022/12/22 03:32:25;;;;;;;8.65;5.40;;;;;;;;;;5045487;28;20486;-60
2022/12/22 03:34:51;;;;;;;10.23;5.50;;;;;;;;;;5050480;28;20039;-60
2022/12/22 03:37:16;;;;;;;8.18;4.93;;;;;;;;;;5051947;28;20040;-60
2022/12/22 03:39:41;;;;;;;8.05;4.90;;;;;;;;;;5049784;28;20132;-59
2022/12/22 03:47:39;;;;;;;7.15;4.43;;;;;;;;;;5043038;28;20500;-60
2022/12/22 03:50:04;;;;;;;8.20;4.93;;;;;;;;;;5050139;28;20036;-60
2022/12/22 03:52:30;;;;;;;7.45;4.47;;;;;;;;;;5048999;28;20409;-61
2022/12/22 03:54:55;;;;;;;9.73;5.07;;;;;;;;;;5047040;28;20029;-60
2022/12/22 03:57:21;;;;;;;8.95;5.75;;;;;;;;;;5051467;28;20045;-61
2022/12/22 03:59:46;;;;;;;7.20;4.60;;;;;;;;;;5048468;28;20556;-62
2022/12/22 04:02:12;;;;;;;7.57;4.35;;;;;;;;;;5046737;28;20439;-61
2022/12/22 04:04:38;;;;;;;6.45;4.10;;;;;;;;;;5050169;28;20056;-61
2022/12/22 04:07:03;;;;;;;6.65;4.18;;;;;;;;;;5048382;28;20032;-61
2022/12/22 04:09:28;;;;;;;6.03;4.00;;;;;;;;;;5048315;28;20040;-62
2022/12/22 04:14:38;;;;;;;6.95;4.47;;;;;;;;;;5048958;28;20113;-61
2022/12/22 04:17:04;;;;;;;5.85;3.67;;;;;;;;;;5049299;28;20105;-60
2022/12/22 04:19:30;;;;;;;8.40;4.55;;;;;;;;;;5045429;28;20385;-60
2022/12/22 04:21:56;;;;;;;7.57;4.70;;;;;;;;;;5049428;28;20116;-61
2022/12/22 04:24:22;;;;;;;7.18;4.28;;;;;;;;;;5048071;28;20104;-61
2022/12/22 04:26:47;;;;;;;6.47;4.13;;;;;;;;;;5044170;28;20045;-61
2022/12/22 04:29:13;;;;;;;7.05;4.15;;;;;;;;;;5059427;28;20086;-61
2022/12/22 04:31:38;;;;;;;6.90;4.13;;;;;;;;;;5052625;28;20363;-61
2022/12/22 04:34:04;;;;;;;6.95;4.05;;;;;;;;;;5050896;28;20466;-61
2022/12/22 04:36:29;;;;;;;7.13;4.40;;;;;;;;;;5055234;28;20079;-61
2022/12/22 04:38:54;;;;;;;9.40;4.80;;;;;;;;;;5053408;28;20037;-61
2022/12/22 04:41:20;;;;;;;7.93;4.50;;;;;;;;;;5051611;28;20032;-61
2022/12/22 04:43:45;;;;;;;6.90;4.05;;;;;;;;;;5038683;28;20036;-61
2022/12/22 04:46:11;;;;;;;7.20;4.20;;;;;;;;;;5043725;28;20248;-61
2022/12/22 04:48:36;;;;;;;6.65;4.07;;;;;;;;;;5053350;28;20040;-61
2022/12/22 04:51:01;;;;;;;7.97;4.28;;;;;;;;;;5046103;28;20216;-61
2022/12/22 04:53:28;;;;;;;7.55;4.13;;;;;;;;;;5061736;28;20045;-61
2022/12/22 04:55:57;;;;;;;7.15;4.50;;;;;;;;;;5050583;28;20033;-62
2022/12/22 04:58:23;;;;;;;6.97;4.35;;;;;;;;;;5050511;28;20117;-61
2022/12/22 05:00:48;;;;;;;7.15;4.13;;;;;;;;;;5048826;28;20456;-61
2022/12/22 05:03:13;;;;;;;7.97;4.53;;;;;;;;;;5041628;28;20546;-60
2022/12/22 05:05:39;;;;;;;7.93;4.38;;;;;;;;;;5053136;28;20028;-60
2022/12/22 05:08:05;;;;;;;8.40;4.40;;;;;;;;;;5051849;28;20041;-61
2022/12/22 05:10:31;;;;;;;7.75;4.07;;;;;;;;;;5052704;28;20090;-60
2022/12/22 05:12:57;;;;;;;6.43;4.00;;;;;;;;;;5051381;28;20021;-60
2022/12/22 05:15:28;;;;;;;8.60;4.63;;;;;;;;;;5052293;28;20037;-60
2022/12/22 05:17:54;;;;;;;9.40;4.60;;;;;;;;;;5052283;28;20033;-60
2022/12/22 05:20:20;;;;;;;8.65;4.10;;;;;;;;;;5046616;28;20108;-60
2022/12/22 05:22:46;;;;;;;8.82;5.03;;;;;;;;;;5045861;28;20029;-60
2022/12/22 05:25:15;;;;;;;9.82;5.28;;;;;;;;;;5052185;28;20048;-60
2022/12/22 05:27:41;;;;;;;10.48;5.13;;;;;;;;;;5051879;28;20480;-60
2022/12/22 05:30:07;;;;;;;7.65;4.75;;;;;;;;;;5050762;28;20151;-60
2022/12/22 05:32:33;;;;;;;9.18;5.10;;;;;;;;;;5051495;28;20037;-60
2022/12/22 05:34:58;;;;;;;8.27;4.85;;;;;;;;;;5052135;28;20029;-60
2022/12/22 05:37:24;;;;;;;10.52;5.32;;;;;;;;;;5053602;28;20025;-59
2022/12/22 05:39:49;;;;;;;9.57;5.15;;;;;;;;;;5054487;28;20029;-60
2022/12/22 05:42:34;;;;;;;10.45;5.10;;;;;;;;;;5051810;28;20503;-60
2022/12/22 05:45:18;;;;;;;11.00;6.20;;;;;;;;;;5053301;28;20412;-60
2022/12/22 05:47:46;;;;;;;11.43;5.85;;;;;;;;;;5038859;28;20112;-60
2022/12/22 05:50:14;;;;;;;11.23;5.50;;;;;;;;;;5063211;28;20179;-60
2022/12/22 05:52:40;;;;;;;10.10;5.55;;;;;;;;;;5052303;28;20025;-60
2022/12/22 05:55:06;;;;;;;10.32;5.63;;;;;;;;;;5051781;28;20029;-60
2022/12/22 05:57:32;;;;;;;11.68;5.57;;;;;;;;;;5054018;28;20377;-60
2022/12/22 05:59:57;;;;;;;8.85;5.03;;;;;;;;;;5053291;28;20037;-61
2022/12/22 06:02:23;;;;;;;10.15;5.72;;;;;;;;;;5052444;28;20105;-59
2022/12/22 06:04:48;;;;;;;12.38;6.07;;;;;;;;;;5053856;28;20082;-59
2022/12/22 06:07:13;;;;;;;11.18;5.75;;;;;;;;;;5052105;28;20044;-60
2022/12/22 06:09:39;;;;;;;10.52;5.65;;;;;;;;;;5053165;28;20029;-59
2022/12/22 06:12:05;;;;;;;10.95;5.30;;;;;;;;;;5051447;28;20039;-59
2022/12/22 06:14:31;;;;;;;11.52;5.75;;;;;;;;;;5053704;28;20075;-58
2022/12/22 06:16:56;;;;;;;11.75;5.72;;;;;;;;;;5051770;28;20037;-61
2022/12/22 06:19:21;;;;;;;10.75;5.55;;;;;;;;;;5052331;28;20036;-58
2022/12/22 06:21:47;;;;;;;12.43;5.80;;;;;;;;;;5052704;28;20029;-59
2022/12/22 06:24:12;;;;;;;10.82;5.70;;;;;;;;;;5051519;28;20036;-60
2022/12/22 06:26:37;;;;;;;11.18;5.85;;;;;;;;;;5052873;28;20509;-59
2022/12/22 06:29:03;;;;;;;9.48;5.65;;;;;;;;;;5070165;28;20082;-59
2022/12/22 06:31:28;;;;;;;10.07;5.97;;;;;;;;;;5051472;28;20029;-61
2022/12/22 06:33:54;;;;;;;10.55;6.22;;;;;;;;;;5053089;28;20082;-60
2022/12/22 06:36:19;;;;;;;10.27;6.00;;;;;;;;;;5050889;28;20033;-61
2022/12/22 06:38:44;;;;;;;9.68;6.05;;;;;;;;;;5053112;28;20024;-60
2022/12/22 06:41:10;;;;;;;11.52;6.07;;;;;;;;;;5052256;28;20037;-61
2022/12/22 06:43:35;;;;;;;12.07;7.38;;;;;;;;;;5051674;28;20106;-60
2022/12/22 06:46:01;;;;;;;12.52;7.90;;;;;;;;;;5050152;28;20454;-61
2022/12/22 06:48:26;;;;;;;12.55;6.63;;;;;;;;;;5048046;28;20128;-57
2022/12/22 06:50:59;;;;;;;11.65;6.90;;;;;;;;;;5052410;28;20029;-58
2022/12/22 06:53:25;;;;;;;11.55;7.00;;;;;;;;;;5050809;28;20060;-56
2022/12/22 06:55:50;;;;;;;12.85;7.75;;;;;;;;;;5052531;28;20100;-57
2022/12/22 06:58:15;;;;;;;12.65;7.00;;;;;;;;;;5051827;28;20048;-58
2022/12/22 07:00:42;;;;;;;12.77;7.88;;;;;;;;;;5052180;28;20060;-57
2022/12/22 07:03:07;;;;;;;13.68;7.80;;;;;;;;;;5045526;28;20087;-60
2022/12/22 07:05:33;;;;;;;16.80;7.90;;;;;;;;;;5047011;28;20029;-58
2022/12/22 07:07:59;;;;;;;14.07;7.57;;;;;;;;;;5051482;28;20551;-61
2022/12/22 07:10:56;;;;;;;15.00;8.13;;;;;;;;;;5051208;28;20028;-60
2022/12/22 07:13:19;;;;;;;17.35;9.02;;;;;;;;;;5047161;28;20118;-59
2022/12/22 07:15:48;;;;;;;15.95;8.32;;;;;;;;;;5051460;28;20021;-58
2022/12/22 07:18:14;;;;;;;18.23;9.13;;;;;;;;;;5050012;28;20036;-59
2022/12/22 07:20:39;;;;;;;18.67;8.82;;;;;;;;;;5051162;28;20052;-57
2022/12/22 07:23:05;;;;;;;19.10;9.55;;;;;;;;;;5048765;28;20032;-58
2022/12/22 07:25:33;;;;;;;17.33;9.32;;;;;;;;;;5050527;28;20067;-59
2022/12/22 07:27:59;;;;;;;17.23;9.38;;;;;;;;;;5050751;28;20028;-60
2022/12/22 07:30:24;;;;;;;19.33;9.55;;;;;;;;;;5051202;28;20021;-60
2022/12/22 07:32:50;;;;;;;16.58;9.77;;;;;;;;;;5051256;28;20033;-57
2022/12/22 07:35:18;;;;;;;20.73;9.90;;;;;;;;;;5048926;28;20398;-58
2022/12/22 07:37:47;;;;;;;19.25;10.20;;;;;;;;;;5050237;28;20044;-61
2022/12/22 07:40:13;;;;;;;23.38;10.88;;;;;;;;;;5051200;28;20075;-58
2022/12/22 07:42:44;;;;;;;25.30;12.20;;;;;;;;;;5051206;28;20068;-57
2022/12/22 07:45:16;;;;;;;29.58;13.70;;;;;;;;;;5046162;28;20030;-58
2022/12/22 07:47:42;;;;;;;31.70;13.77;;;;;;;;;;5047679;28;20033;-58
2022/12/22 07:50:26;;;;;;;35.65;15.02;;;;;;;;;;5051642;28;20132;-54
2022/12/22 07:52:53;;;;;;;40.47;16.35;;;;;;;;;;5064158;28;20451;-58
2022/12/22 07:55:19;;;;;;;46.45;17.33;;;;;;;;;;5069999;28;20121;-56
2022/12/22 07:57:44;;;;;;;49.83;18.23;;;;;;;;;;5051404;28;20511;-58
2022/12/22 08:00:11;;;;;;;50.10;18.17;;;;;;;;;;5063067;28;20044;-57
2022/12/22 08:02:36;;;;;;;52.63;18.70;;;;;;;;;;5050338;28;20037;-57
2022/12/22 08:05:02;;;;;;;44.10;15.60;;;;;;;;;;5049467;28;20070;-60
2022/12/22 08:07:27;;;;;;;46.60;16.60;;;;;;;;;;5049227;28;20405;-58
2022/12/22 08:09:53;;;;;;;41.33;16.67;;;;;;;;;;5053008;28;20136;-56
2022/12/22 08:12:18;;;;;;;40.72;16.65;;;;;;;;;;5051052;28;20120;-61
2022/12/22 08:14:44;;;;;;;43.75;16.60;;;;;;;;;;5049288;28;20363;-58
2022/12/22 08:17:13;;;;;;;40.95;16.60;;;;;;;;;;5049908;28;20413;-58
2022/12/22 08:19:38;;;;;;;34.85;14.07;;;;;;;;;;5051097;28;20033;-57
2022/12/22 08:22:04;;;;;;;41.42;15.55;;;;;;;;;;5048604;28;20033;-60
2022/12/22 08:24:29;;;;;;;40.60;14.48;;;;;;;;;;5053189;28;20036;-59
2022/12/22 08:27:04;;;;;;;41.05;14.18;;;;;;;;;;5051439;28;20029;-57
2022/12/22 08:29:35;;;;;;;41.95;14.07;;;;;;;;;;5049697;28;20064;-57
2022/12/22 08:32:01;;;;;;;41.40;14.48;;;;;;;;;;5051551;28;20029;-58
2022/12/22 08:34:26;;;;;;;42.15;14.73;;;;;;;;;;5049912;28;20454;-59
2022/12/22 08:36:55;;;;;;;39.92;13.73;;;;;;;;;;5051176;28;20033;-57
2022/12/22 08:39:22;;;;;;;40.47;13.40;;;;;;;;;;5062708;28;20025;-60
2022/12/22 08:41:49;;;;;;;35.65;12.23;;;;;;;;;;5050153;28;20037;-58
2022/12/22 08:44:15;;;;;;;48.35;13.30;;;;;;;;;;5046718;28;20040;-59
2022/12/22 08:46:41;;;;;;;50.05;13.88;;;;;;;;;;5051500;28;20470;-58
2022/12/22 08:49:06;;;;;;;44.28;13.68;;;;;;;;;;5048597;28;20071;-61
2022/12/22 08:51:33;;;;;;;45.47;14.02;;;;;;;;;;5046912;28;20037;-58
2022/12/22 08:53:58;;;;;;;41.42;13.27;;;;;;;;;;5050407;28;20033;-58
2022/12/22 08:56:24;;;;;;;47.30;14.20;;;;;;;;;;5050243;28;20611;-57
2022/12/22 08:58:49;;;;;;;45.75;13.88;;;;;;;;;;5049697;28;20466;-56
2022/12/22 09:01:20;;;;;;;42.50;13.90;;;;;;;;;;5050474;28;20025;-55
2022/12/22 09:03:53;;;;;;;41.40;13.13;;;;;;;;;;5044950;28;20033;-58
2022/12/22 09:06:20;;;;;;;44.92;12.88;;;;;;;;;;5048562;28;20116;-55
2022/12/22 09:08:46;;;;;;;40.40;12.88;;;;;;;;;;5047781;28;20032;-57
2022/12/22 09:11:11;;;;;;;39.03;12.18;;;;;;;;;;5051382;28;20120;-56
2022/12/22 09:13:37;;;;;;;44.83;14.20;;;;;;;;;;5050382;28;20513;-58
2022/12/22 09:16:07;;;;;;;39.65;13.30;;;;;;;;;;5050017;28;20384;-57
2022/12/22 09:18:32;;;;;;;43.70;13.10;;;;;;;;;;5053701;28;20152;-57
2022/12/22 09:20:58;;;;;;;40.03;13.50;;;;;;;;;;5054487;28;20059;-60
2022/12/22 09:23:24;;;;;;;41.95;14.48;;;;;;;;;;5053003;28;20029;-58
2022/12/22 09:25:49;;;;;;;40.25;12.80;;;;;;;;;;5053255;28;20110;-56
2022/12/22 09:28:15;;;;;;;37.72;12.80;;;;;;;;;;5052972;28;20048;-58
2022/12/22 09:30:40;;;;;;;32.60;11.60;;;;;;;;;;5053282;28;20028;-56
2022/12/22 09:33:05;;;;;;;31.02;12.10;;;;;;;;;;5052788;28;20033;-60
2022/12/22 09:35:31;;;;;;;29.70;11.18;;;;;;;;;;5053687;28;20053;-59
2022/12/22 09:37:56;;;;;;;30.95;12.15;;;;;;;;;;5052342;28;20035;-59
2022/12/22 09:40:23;;;;;;;31.23;12.57;;;;;;;;;;5053758;28;20031;-60
2022/12/22 09:42:49;;;;;;;34.40;13.35;;;;;;;;;;5053001;28;20087;-59
2022/12/22 09:45:18;;;;;;;29.20;11.85;;;;;;;;;;5049621;28;20040;-56
2022/12/22 09:47:55;;;;;;;36.42;12.98;;;;;;;;;;5047128;28;20029;-58
2022/12/22 09:50:23;;;;;;;29.67;12.45;;;;;;;;;;5051324;28;20033;-59
2022/12/22 09:52:53;;;;;;;34.22;13.13;;;;;;;;;;5053058;28;20033;-54
2022/12/22 09:55:30;;;;;;;33.03;11.98;;;;;;;;;;5050680;28;20528;-60
2022/12/22 09:57:56;;;;;;;32.22;12.18;;;;;;;;;;5052621;28;20098;-60
2022/12/22 10:00:27;;;;;;;31.40;12.40;;;;;;;;;;5053157;28;20466;-61
2022/12/22 10:03:10;;;;;;;30.73;12.15;;;;;;;;;;5052046;28;20037;-61
2022/12/22 10:06:09;;;;;;;29.00;11.52;;;;;;;;;;5052408;28;20029;-57
2022/12/22 10:08:37;;;;;;;28.88;12.55;;;;;;;;;;5035338;28;20084;-59
2022/12/22 10:11:03;;;;;;;28.10;11.88;;;;;;;;;;5052786;28;20025;-58
2022/12/22 10:13:28;;;;;;;29.73;11.35;;;;;;;;;;5052008;28;20051;-59
2022/12/22 10:15:54;;;;;;;29.67;11.30;;;;;;;;;;5053346;28;20484;-60
2022/12/22 10:18:23;;;;;;;29.45;11.60;;;;;;;;;;5051844;28;20079;-61
2022/12/22 10:21:13;;;;;;;23.58;10.32;;;;;;;;;;5053368;28;20029;-61
2022/12/22 10:23:44;;;;;;;22.75;9.27;;;;;;;;;;5036085;28;20071;-61
2022/12/22 10:26:16;;;;;;;27.77;10.98;;;;;;;;;;5051160;28;20037;-62
2022/12/22 10:28:52;;;;;;;30.75;11.98;;;;;;;;;;5052946;28;20032;-61
2022/12/22 10:31:23;;;;;;;26.05;10.80;;;;;;;;;;5064246;28;20078;-61
2022/12/22 10:33:51;;;;;;;31.17;12.07;;;;;;;;;;5053097;28;20025;-63
2022/12/22 10:36:24;;;;;;;32.55;12.25;;;;;;;;;;5051664;28;20036;-62
2022/12/22 10:39:04;;;;;;;34.20;13.07;;;;;;;;;;5051791;28;20496;-61
2022/12/22 10:41:43;;;;;;;30.98;11.85;;;;;;;;;;5044352;28;20222;-61
2022/12/22 10:44:21;;;;;;;32.10;12.32;;;;;;;;;;5053487;28;20086;-62
2022/12/22 10:46:55;;;;;;;39.65;14.48;;;;;;;;;;5052674;28;20033;-62
2022/12/22 10:49:29;;;;;;;42.50;14.48;;;;;;;;;;5049416;28;20067;-60
2022/12/22 10:52:18;;;;;;;32.92;13.55;;;;;;;;;;5067044;28;20043;-60
2022/12/22 10:54:45;;;;;;;33.20;13.45;;;;;;;;;;5053163;28;20025;-61
2022/12/22 10:57:13;;;;;;;31.60;12.20;;;;;;;;;;5051448;28;20049;-62
2022/12/22 10:59:54;;;;;;;29.85;13.18;;;;;;;;;;5050717;28;20033;-61
2022/12/22 11:02:19;;;;;;;21.92;10.73;;;;;;;;;;5050714;28;20037;-61
2022/12/22 11:04:45;;;;;;;19.55;10.82;;;;;;;;;;5050656;28;20039;-62
2022/12/22 11:07:10;;;;;;;18.17;9.18;;;;;;;;;;5060524;28;20035;-62
2022/12/22 11:09:36;;;;;;;14.07;8.13;;;;;;;;;;5069428;28;20037;-61
2022/12/22 11:12:25;;;;;;;15.95;8.57;;;;;;;;;;5041909;28;20055;-60
2022/12/22 11:15:17;;;;;;;15.45;7.88;;;;;;;;;;5003237;28;20129;-60
2022/12/22 11:17:51;;;;;;;16.95;8.57;;;;;;;;;;5024070;28;20040;-58
2022/12/22 11:20:33;;;;;;;14.77;8.38;;;;;;;;;;5051149;28;20060;-57
2022/12/22 11:23:25;;;;;;;15.13;7.95;;;;;;;;;;5050546;28;20448;-58
2022/12/22 11:26:07;;;;;;;15.13;8.40;;;;;;;;;;5050374;28;20394;-61
2022/12/22 11:28:51;;;;;;;16.55;9.30;;;;;;;;;;5046047;28;20907;-61
2022/12/22 11:32:01;;;;;;;16.98;9.25;;;;;;;;;;5051480;28;20028;-61
2022/12/22 11:34:41;;;;;;;16.48;9.52;;;;;;;;;;5049621;28;20032;-60
2022/12/22 11:37:19;;;;;;;15.35;8.05;;;;;;;;;;5049404;28;20035;-56
2022/12/22 11:39:53;;;;;;;18.38;9.93;;;;;;;;;;5051142;28;20033;-59
2022/12/22 11:43:02;;;;;;;17.67;9.48;;;;;;;;;;5049529;28;20401;-59
2022/12/22 11:45:54;;;;;;;16.42;8.38;;;;;;;;;;4989729;28;20539;-56
2022/12/22 11:48:28;;;;;;;16.75;8.73;;;;;;;;;;5008852;28;20042;-57
2022/12/22 11:51:10;;;;;;;18.25;9.52;;;;;;;;;;5051988;28;20029;-56
2022/12/22 11:54:06;;;;;;;14.32;7.40;;;;;;;;;;5049170;28;20048;-53
2022/12/22 11:56:37;;;;;;;15.55;8.15;;;;;;;;;;5045294;28;20056;-54
2022/12/22 11:59:42;;;;;;;16.80;9.45;;;;;;;;;;5052053;28;20025;-56
2022/12/22 12:02:32;;;;;;;18.80;9.18;;;;;;;;;;5048593;28;20048;-56
2022/12/22 12:05:15;;;;;;;17.08;8.45;;;;;;;;;;5051100;28;20101;-53
2022/12/22 12:07:47;;;;;;;15.15;7.40;;;;;;;;;;5048056;28;20116;-54
2022/12/22 12:10:25;;;;;;;15.00;6.47;;;;;;;;;;5051832;28;20029;-57
2022/12/22 12:13:02;;;;;;;15.82;8.38;;;;;;;;;;5050528;28;20098;-54
2022/12/22 12:15:50;;;;;;;13.82;6.70;;;;;;;;;;5048387;28;20041;-56
2022/12/22 12:18:40;;;;;;;16.23;7.25;;;;;;;;;;5041091;28;20650;-60
2022/12/22 12:21:24;;;;;;;13.18;6.38;;;;;;;;;;5051231;28;20111;-57
2022/12/22 12:24:05;;;;;;;15.30;6.93;;;;;;;;;;5046859;28;20488;-55
2022/12/22 12:26:59;;;;;;;14.18;7.13;;;;;;;;;;5049690;28;20028;-57
2022/12/22 12:29:39;;;;;;;12.32;6.32;;;;;;;;;;5050730;28;20037;-54
2022/12/22 12:32:19;;;;;;;16.42;7.65;;;;;;;;;;5050504;28;20037;-57
2022/12/22 12:34:51;;;;;;;17.55;7.60;;;;;;;;;;5050659;28;20052;-57
2022/12/22 12:37:27;;;;;;;16.70;7.50;;;;;;;;;;5047357;28;20033;-60
2022/12/22 12:40:25;;;;;;;15.27;7.28;;;;;;;;;;5049367;28;20037;-57
2022/12/22 12:42:53;;;;;;;17.58;8.52;;;;;;;;;;5047454;28;20037;-58
2022/12/22 12:45:40;;;;;;;16.52;7.82;;;;;;;;;;5048036;28;20033;-60
2022/12/22 12:48:23;;;;;;;16.10;7.78;;;;;;;;;;5050901;28;20037;-58
2022/12/22 12:50:50;;;;;;;17.13;8.57;;;;;;;;;;5050199;28;20037;-58
2022/12/22 12:53:17;;;;;;;17.17;8.15;;;;;;;;;;5053449;28;20444;-58
2022/12/22 12:55:49;;;;;;;17.33;7.93;;;;;;;;;;5052064;28;20040;-58
2022/12/22 12:58:39;;;;;;;14.85;7.28;;;;;;;;;;5054804;28;20478;-59
2022/12/22 13:01:31;;;;;;;14.88;6.72;;;;;;;;;;5054016;28;20025;-59
2022/12/22 13:03:56;;;;;;;14.10;6.22;;;;;;;;;;5038259;28;20041;-56
2022/12/22 13:06:52;;;;;;;13.80;6.72;;;;;;;;;;5053208;28;20063;-56
2022/12/22 13:09:26;;;;;;;17.63;7.38;;;;;;;;;;5054774;28;20424;-60
2022/12/22 13:11:52;;;;;;;13.65;7.68;;;;;;;;;;5055226;28;20110;-56
2022/12/22 13:14:55;;;;;;;14.75;7.45;;;;;;;;;;5054197;28;20056;-61
2022/12/22 13:17:47;;;;;;;15.50;7.13;;;;;;;;;;5048597;28;20030;-60
2022/12/22 13:20:17;;;;;;;14.88;8.02;;;;;;;;;;5048751;28;20409;-53
2022/12/22 13:22:42;;;;;;;17.92;8.48;;;;;;;;;;5053923;28;20083;-58
2022/12/22 13:25:15;;;;;;;20.67;8.93;;;;;;;;;;5052680;28;20029;-52
2022/12/22 13:27:41;;;;;;;19.38;9.43;;;;;;;;;;5053797;28;20029;-54
2022/12/22 13:30:15;;;;;;;20.60;9.55;;;;;;;;;;5055010;28;20078;-57
2022/12/22 13:32:43;;;;;;;19.08;9.35;;;;;;;;;;5045260;28;20370;-58
2022/12/22 13:35:20;;;;;;;21.25;10.25;;;;;;;;;;5053383;28;20043;-58
2022/12/22 13:37:48;;;;;;;22.58;10.20;;;;;;;;;;5052943;28;20068;-59
2022/12/22 13:40:24;;;;;;;19.55;9.60;;;;;;;;;;5054519;28;20170;-59
2022/12/22 13:42:58;;;;;;;18.45;9.63;;;;;;;;;;5052342;28;20083;-59
2022/12/22 13:45:42;;;;;;;21.75;9.38;;;;;;;;;;5053815;28;20057;-55
2022/12/22 13:48:18;;;;;;;17.75;9.15;;;;;;;;;;5052624;28;20120;-58
2022/12/22 13:50:48;;;;;;;15.88;7.43;;;;;;;;;;5052806;28;20078;-60
2022/12/22 13:53:21;;;;;;;13.65;7.55;;;;;;;;;;5053763;28;20048;-57
2022/12/22 13:55:47;;;;;;;15.77;8.27;;;;;;;;;;5052607;28;20060;-54
2022/12/22 13:58:25;;;;;;;15.07;7.90;;;;;;;;;;5052820;28;20060;-59
2022/12/22 14:01:09;;;;;;;15.85;6.70;;;;;;;;;;5051547;28;20029;-60
2022/12/22 14:03:44;;;;;;;11.07;6.15;;;;;;;;;;5051361;28;20051;-56
2022/12/22 14:06:31;;;;;;;17.48;8.95;;;;;;;;;;5053421;28;20025;-56
2022/12/22 14:09:13;;;;;;;13.48;6.63;;;;;;;;;;5052937;28;20086;-59
2022/12/22 14:11:39;;;;;;;19.27;9.25;;;;;;;;;;5053404;28;20086;-55
2022/12/22 14:14:15;;;;;;;16.45;9.80;;;;;;;;;;5051544;28;20032;-56
2022/12/22 14:16:46;;;;;;;14.85;8.07;;;;;;;;;;5050747;28;20025;-56
2022/12/22 14:19:13;;;;;;;20.77;10.73;;;;;;;;;;5053840;28;20040;-57
2022/12/22 14:21:41;;;;;;;19.48;11.13;;;;;;;;;;5050912;28;20056;-57
2022/12/22 14:24:14;;;;;;;21.05;11.98;;;;;;;;;;5053943;28;20033;-60
2022/12/22 14:26:40;;;;;;;24.08;11.57;;;;;;;;;;5050874;28;20094;-58
2022/12/22 14:29:12;;;;;;;22.23;12.30;;;;;;;;;;5051321;28;20033;-58
2022/12/22 14:31:57;;;;;;;20.55;11.07;;;;;;;;;;5052591;28;20036;-50
2022/12/22 14:34:33;;;;;;;20.73;12.00;;;;;;;;;;5051886;28;20061;-60
2022/12/22 14:37:00;;;;;;;19.65;11.65;;;;;;;;;;5050908;28;20078;-55
2022/12/22 14:39:31;;;;;;;22.15;12.32;;;;;;;;;;5051324;28;20035;-60
2022/12/22 14:42:00;;;;;;;23.08;11.98;;;;;;;;;;5052675;28;20025;-55
2022/12/22 14:44:33;;;;;;;21.35;12.32;;;;;;;;;;5044358;28;20037;-61
2022/12/22 14:47:11;;;;;;;20.33;10.95;;;;;;;;;;5043383;28;20036;-57
2022/12/22 14:49:49;;;;;;;18.92;11.40;;;;;;;;;;5049303;28;20037;-57
2022/12/22 14:52:56;;;;;;;21.33;11.45;;;;;;;;;;5041983;28;20030;-58
2022/12/22 14:55:21;;;;;;;21.33;11.80;;;;;;;;;;4987205;28;20499;-58
2022/12/22 14:57:55;;;;;;;16.30;9.40;;;;;;;;;;5030130;28;20467;-58
2022/12/22 15:00:20;;;;;;;20.23;11.68;;;;;;;;;;5044995;28;20108;-56
2022/12/22 15:02:58;;;;;;;18.52;9.95;;;;;;;;;;5045882;28;20108;-56
2022/12/22 15:05:26;;;;;;;20.70;11.30;;;;;;;;;;5043741;28;20029;-61
2022/12/22 15:07:54;;;;;;;20.27;11.43;;;;;;;;;;5050308;28;20493;-57
2022/12/22 15:10:20;;;;;;;20.00;11.30;;;;;;;;;;5045425;28;20104;-59
2022/12/22 15:12:47;;;;;;;19.02;10.30;;;;;;;;;;5050080;28;20025;-56
2022/12/22 15:15:20;;;;;;;19.88;10.82;;;;;;;;;;5048089;28;20035;-56
2022/12/22 15:17:48;;;;;;;17.88;10.23;;;;;;;;;;5049197;28;20025;-58
2022/12/22 15:20:17;;;;;;;18.25;10.35;;;;;;;;;;5044234;28;20036;-60
2022/12/22 15:22:43;;;;;;;17.58;10.75;;;;;;;;;;5048213;28;20112;-56
2022/12/22 15:25:14;;;;;;;17.38;9.95;;;;;;;;;;5049691;28;20120;-58
2022/12/22 15:27:40;;;;;;;17.75;9.52;;;;;;;;;;5050883;28;20029;-58
2022/12/22 15:30:06;;;;;;;18.85;9.57;;;;;;;;;;5038301;28;20037;-56
2022/12/22 15:32:31;;;;;;;18.85;9.70;;;;;;;;;;5045219;28;20051;-56
2022/12/22 15:34:57;;;;;;;17.98;9.63;;;;;;;;;;5042254;28;20471;-57
2022/12/22 15:37:22;;;;;;;16.92;10.00;;;;;;;;;;5046483;28;20033;-56
2022/12/22 15:39:48;;;;;;;18.08;10.05;;;;;;;;;;5043101;28;20035;-58
2022/12/22 15:42:13;;;;;;;15.98;9.98;;;;;;;;;;5048310;28;20115;-58
2022/12/22 15:44:39;;;;;;;19.88;10.30;;;;;;;;;;5046204;28;20104;-56
2022/12/22 15:47:05;;;;;;;15.98;9.45;;;;;;;;;;5042092;28;20044;-55
2022/12/22 15:49:30;;;;;;;17.05;9.38;;;;;;;;;;5043523;28;20029;-58
2022/12/22 15:51:59;;;;;;;16.90;9.70;;;;;;;;;;5049714;28;20058;-57
2022/12/22 15:54:25;;;;;;;18.00;9.85;;;;;;;;;;5051869;28;20029;-54
2022/12/22 15:56:52;;;;;;;15.32;9.48;;;;;;;;;;5049084;28;20049;-56
2022/12/22 15:59:26;;;;;;;17.42;9.13;;;;;;;;;;5049691;28;20086;-57
2022/12/22 16:01:58;;;;;;;17.45;9.13;;;;;;;;;;5039152;28;20028;-55
2022/12/22 16:04:26;;;;;;;18.33;9.07;;;;;;;;;;5047500;28;20057;-56
2022/12/22 16:06:52;;;;;;;17.83;9.90;;;;;;;;;;5048697;28;20035;-58
2022/12/22 16:09:24;;;;;;;21.05;9.52;;;;;;;;;;5047099;28;20108;-58
2022/12/22 16:11:49;;;;;;;16.05;9.32;;;;;;;;;;5046845;28;20188;-56
2022/12/22 16:14:17;;;;;;;16.58;9.00;;;;;;;;;;5037756;28;20128;-59
2022/12/22 16:16:42;;;;;;;18.10;8.98;;;;;;;;;;5038991;28;20033;-57
2022/12/22 16:19:26;;;;;;;18.92;9.23;;;;;;;;;;5049820;28;20037;-60
2022/12/22 16:21:52;;;;;;;19.35;9.88;;;;;;;;;;5048045;28;20132;-59
2022/12/22 16:24:30;;;;;;;17.73;9.70;;;;;;;;;;5048481;28;20124;-55
2022/12/22 16:26:56;;;;;;;18.38;9.90;;;;;;;;;;5052272;28;20032;-60
2022/12/22 16:29:22;;;;;;;16.95;10.10;;;;;;;;;;5056378;28;20519;-60
2022/12/22 16:31:48;;;;;;;18.60;10.23;;;;;;;;;;5051327;28;20097;-60
2022/12/22 16:34:14;;;;;;;19.25;10.35;;;;;;;;;;5056384;28;20028;-60
2022/12/22 16:36:39;;;;;;;20.52;10.90;;;;;;;;;;5051463;28;20029;-61
2022/12/22 16:39:05;;;;;;;23.33;11.40;;;;;;;;;;5056424;28;20506;-60
2022/12/22 16:41:30;;;;;;;22.15;11.13;;;;;;;;;;5055121;28;20377;-61
2022/12/22 16:43:58;;;;;;;21.80;11.27;;;;;;;;;;5054295;28;20036;-60
2022/12/22 16:46:24;;;;;;;22.98;11.90;;;;;;;;;;5042406;28;20379;-58
2022/12/22 16:48:59;;;;;;;23.05;12.48;;;;;;;;;;5054166;28;20040;-60
2022/12/22 16:51:32;;;;;;;23.80;12.15;;;;;;;;;;5045904;28;20029;-58
2022/12/22 16:53:58;;;;;;;21.67;11.10;;;;;;;;;;5054877;28;20049;-57
2022/12/22 16:56:27;;;;;;;22.52;11.32;;;;;;;;;;5057116;28;20040;-61
2022/12/22 16:58:53;;;;;;;19.48;10.52;;;;;;;;;;5055407;28;20031;-61
2022/12/22 17:01:30;;;;;;;20.95;11.23;;;;;;;;;;5054483;28;20029;-60
2022/12/22 17:03:59;;;;;;;24.38;12.70;;;;;;;;;;5055444;28;20032;-61
2022/12/22 17:06:25;;;;;;;24.42;12.73;;;;;;;;;;5052047;28;20045;-60
2022/12/22 17:08:50;;;;;;;26.35;13.70;;;;;;;;;;5036815;28;20033;-61
2022/12/22 17:11:21;;;;;;;27.25;13.27;;;;;;;;;;5056399;28;20040;-61
2022/12/22 17:13:49;;;;;;;26.40;13.52;;;;;;;;;;5054541;28;20048;-61
2022/12/22 17:16:23;;;;;;;24.63;13.40;;;;;;;;;;5050327;28;20040;-60
2022/12/22 17:18:49;;;;;;;25.45;13.95;;;;;;;;;;5053230;28;20477;-61
2022/12/22 17:21:17;;;;;;;28.35;14.43;;;;;;;;;;5052395;28;20036;-61
2022/12/22 17:23:47;;;;;;;27.75;14.48;;;;;;;;;;5055176;28;20036;-61
2022/12/22 17:26:16;;;;;;;25.42;13.40;;;;;;;;;;5055777;28;20063;-62
2022/12/22 17:28:42;;;;;;;29.13;13.75;;;;;;;;;;5053075;28;20075;-61
2022/12/22 17:31:15;;;;;;;26.42;13.38;;;;;;;;;;5053604;28;20116;-61
2022/12/22 17:33:40;;;;;;;31.85;14.05;;;;;;;;;;5055764;28;20099;-61
2022/12/22 17:36:18;;;;;;;28.20;14.23;;;;;;;;;;5054237;28;21365;-60
2022/12/22 17:38:44;;;;;;;32.60;14.68;;;;;;;;;;5050381;28;20048;-61
2022/12/22 17:41:14;;;;;;;30.70;14.35;;;;;;;;;;5053179;28;20036;-60
2022/12/22 17:43:39;;;;;;;31.23;13.90;;;;;;;;;;5052957;28;20032;-61
2022/12/22 17:46:12;;;;;;;31.23;13.32;;;;;;;;;;5040830;28;20033;-61
2022/12/22 17:48:37;;;;;;;31.33;13.82;;;;;;;;;;5038768;28;20033;-62
2022/12/22 17:51:03;;;;;;;29.17;13.85;;;;;;;;;;5053900;28;20036;-63
2022/12/22 17:53:29;;;;;;;29.10;13.45;;;;;;;;;;5050556;28;20075;-60
2022/12/22 17:55:55;;;;;;;25.90;12.80;;;;;;;;;;5051593;28;20025;-59
2022/12/22 17:58:20;;;;;;;28.35;12.35;;;;;;;;;;5053924;28;20035;-60
2022/12/22 18:00:45;;;;;;;24.35;12.95;;;;;;;;;;5046620;28;20056;-60
2022/12/22 18:03:12;;;;;;;26.45;12.50;;;;;;;;;;5057938;28;20037;-62
2022/12/22 18:05:42;;;;;;;24.10;11.88;;;;;;;;;;5060908;28;20037;-62
2022/12/22 18:08:13;;;;;;;29.35;12.82;;;;;;;;;;5076318;28;20028;-60
2022/12/22 18:10:38;;;;;;;26.42;12.98;;;;;;;;;;5047330;28;20056;-61
2022/12/22 18:13:11;;;;;;;24.52;12.00;;;;;;;;;;5053374;28;20498;-60
2022/12/22 18:15:36;;;;;;;24.17;12.05;;;;;;;;;;5042417;28;20039;-61
2022/12/22 18:18:02;;;;;;;23.92;12.65;;;;;;;;;;5068931;28;20112;-60
2022/12/22 18:20:28;;;;;;;22.90;11.73;;;;;;;;;;5056417;28;20106;-62